Nashville, TN

4:15 PM CDT on May 27, 2015 (GMT -0500)
Nashville International | | Change Station
CLOSE
Current Station
Airport
Location: Nashville,
Elevation: 597 ft
Nearby Weather Stations

Elev 597 ft 36.12 °N, 86.69 °W | Updated 22 minutes ago

Mostly Cloudy
Mostly Cloudy
71 °F
Feels Like 71 °F
N
4
Wind Variable Wind from SSE

Today
High -- | Low -- °F
--% Chance of Precip.
Yesterday
High -- | Low -- °F
Precip. -- in
5:33 AM 7:54 PM
Waxing Gibbous, 70% visible
Pressure 30.15 in
Visibility 10.0 miles
Clouds Few 5000 ft
Scattered Clouds 7000 ft
Mostly Cloudy 9500 ft
Mostly Cloudy 25000 ft
Dew Point 67 °F
Humidity 87%
Rainfall 0.15 in
Snow Depth Not available.
UV 4 out of 12
Pollen 6.90 out of 12
Air Quality Not available.
Flu Activity Sporadic
METAR KBNA 272053Z 16003KT 10SM FEW050 SCT070 BKN095 BKN250 22/19 A3016 RMK AO2 RAB00E27 SLP209 P0002 60015 T02170194 50002

More Conditions Fewer Conditions

Pressure 30.15 in
Visibility 10.0 miles
Clouds Few 5000 ft
Scattered Clouds 7000 ft
Mostly Cloudy 9500 ft
Mostly Cloudy 25000 ft
Dew Point 67 °F
Humidity 87%
Rainfall 0.15 in
Snow Depth Not available.
UV 4 out of 12
Pollen 6.90 out of 12
Air Quality Not available.
Flu Activity Sporadic
METAR KBNA 272053Z 16003KT 10SM FEW050 SCT070 BKN095 BKN250 22/19 A3016 RMK AO2 RAB00E27 SLP209 P0002 60015 T02170194 50002

More Conditions Fewer Conditions

10-Day Weather Forecast

Almanac

Astronomy

May. 27, 2015 Rise Set
Actual Time
Civil Twilight
Nautical Twilight
Astronomical Twilight
Moon
Length of Visible Light
Length of Day
Tomorrow will be .
, % of the Moon is Illuminated

Today's Extremes

State Highs State Lows

Community

WunderPhotos

Upload Photos

1,824,799 photos uploaded!

WunderBlogs® & News

Nearby

Air Quality

  Air Quality AQ Index Pollutant
Not available.

Snow Depth

Station Depth Elevation

Earthquake Activity

City Distance Mag. Time & Date
Minimum magnitude displayed is 2.5.

Coastal Water Temperatures

Place Temperature

Stations

Nearby Weather Stations

Station Location Temp. Windchill Dew Point Humidity Wind Precip. Elev Updated Type